Time;durP1;ratioP1;P1;durP2;ratioP2;P2;SDS_P1;SDS_P2;PMS_P1;PMS_P2;Temp;Humidity;BMP_temperature;BMP_pressure;BME280_temperature;BME280_humidity;BME280_pressure;Samples;Min_cycle;Max_cycle;Signal;HPM_P1;HPM_P2
2021/04/23 00:00:33;;;;;;;6.40;4.70;;;;;;;12.14;76.28;95038.28;5113581;28;20449;-74
2021/04/23 00:03:01;;;;;;;6.17;5.10;;;;;;;12.22;76.83;95035.00;5113519;28;20450;-74
2021/04/23 00:05:29;;;;;;;5.70;4.77;;;;;;;12.31;75.74;95035.00;5113844;28;20496;-74
2021/04/23 00:07:55;;;;;;;5.37;4.87;;;;;;;12.29;76.90;95036.09;5113586;28;20450;-75
2021/04/23 00:10:24;;;;;;;6.00;5.40;;;;;;;12.29;77.27;95044.81;5113530;28;20946;-74
2021/04/23 00:12:50;;;;;;;4.70;4.30;;;;;;;12.29;77.26;95034.31;5113035;28;20447;-74
2021/04/23 00:15:20;;;;;;;7.23;5.07;;;;;;;12.05;79.19;95032.03;5094342;28;20435;-74
2021/04/23 00:17:46;;;;;;;5.33;4.87;;;;;;;12.13;78.55;95039.25;5113337;28;20454;-73
2021/04/23 00:20:15;;;;;;;6.60;4.97;;;;;;;11.84;80.40;95033.09;5113454;28;20442;-75
2021/04/23 00:22:42;;;;;;;10.07;6.43;;;;;;;11.85;81.21;95032.13;5113297;28;20450;-74
2021/04/23 00:25:10;;;;;;;8.90;5.80;;;;;;;11.99;80.83;95043.13;5113015;28;20443;-74
2021/04/23 00:27:37;;;;;;;7.70;5.50;;;;;;;12.05;81.34;95036.47;5113013;28;20978;-74
2021/04/23 00:30:05;;;;;;;6.20;5.17;;;;;;;11.97;82.11;95033.69;5113153;28;20454;-74
2021/04/23 00:35:16;;;;;;;10.40;5.10;;;;;;;11.77;82.10;95024.88;5113160;28;20506;-73
2021/04/23 00:37:47;;;;;;;7.23;6.10;;;;;;;11.74;82.78;95028.63;5094060;28;20446;-74
2021/04/23 00:40:16;;;;;;;7.13;5.47;;;;;;;11.85;82.14;95032.97;5113479;28;20450;-74
2021/04/23 00:42:42;;;;;;;5.93;5.37;;;;;;;11.90;83.32;95032.59;5113397;28;20446;-73
2021/04/23 00:45:11;;;;;;;9.33;5.50;;;;;;;12.02;82.68;95031.50;5113258;28;20496;-74
2021/04/23 00:47:37;;;;;;;6.00;4.80;;;;;;;12.12;81.47;95029.69;5112967;28;20489;-74
2021/04/23 00:50:04;;;;;;;6.10;5.50;;;;;;;12.10;81.69;95027.22;5113004;28;20787;-74
2021/04/23 00:52:31;;;;;;;7.90;4.43;;;;;;;12.00;82.22;95031.63;5113014;28;20911;-74
2021/04/23 00:54:58;;;;;;;6.13;5.20;;;;;;;12.10;82.39;95043.00;5112756;28;20439;-73
2021/04/23 00:57:25;;;;;;;5.40;4.43;;;;;;;12.30;81.22;95040.41;5117429;28;20449;-74
2021/04/23 00:59:51;;;;;;;6.30;5.33;;;;;;;12.30;81.21;95043.03;5116767;28;20459;-74
2021/04/23 01:02:18;;;;;;;6.00;5.60;;;;;;;12.36;80.10;95038.03;5116802;28;20465;-74
2021/04/23 01:04:44;;;;;;;5.97;5.37;;;;;;;12.51;79.83;95037.66;5116856;28;20453;-73
2021/04/23 01:07:11;;;;;;;6.37;5.73;;;;;;;12.49;80.20;95043.06;5116548;28;20482;-74
2021/04/23 01:09:37;;;;;;;8.50;5.33;;;;;;;12.60;79.69;95042.91;5116660;28;20925;-74
2021/04/23 01:12:05;;;;;;;5.50;5.00;;;;;;;12.62;78.47;95050.66;5116431;28;20446;-74
2021/04/23 01:14:32;;;;;;;5.50;5.03;;;;;;;12.53;79.09;95048.88;5116791;28;20442;-74
2021/04/23 01:16:59;;;;;;;6.50;5.90;;;;;;;12.58;79.54;95050.13;5116569;28;20939;-74
2021/04/23 01:19:28;;;;;;;7.57;4.53;;;;;;;12.70;79.41;95054.25;5116578;28;20451;-74
2021/04/23 01:21:55;;;;;;;7.60;5.40;;;;;;;12.81;78.28;95052.47;5116438;28;20447;-74
2021/04/23 01:24:22;;;;;;;4.63;4.23;;;;;;;12.86;77.78;95058.97;5116534;28;20491;-74
2021/04/23 01:26:50;;;;;;;15.83;4.80;;;;;;;12.94;77.64;95053.84;5116346;28;20490;-73
2021/04/23 01:29:18;;;;;;;5.77;5.20;;;;;;;12.99;77.12;95053.41;5116457;28;20796;-74
2021/04/23 01:31:48;;;;;;;7.17;5.27;;;;;;;13.06;77.39;95056.34;5116316;28;20446;-74
2021/04/23 01:34:19;;;;;;;5.87;5.10;;;;;;;13.10;77.13;95066.44;5116250;28;20495;-74
2021/04/23 01:36:46;;;;;;;5.10;4.60;;;;;;;13.06;77.03;95067.69;5116433;28;20457;-74
2021/04/23 01:39:18;;;;;;;5.73;5.20;;;;;;;12.86;77.70;95069.50;5116188;28;20797;-74
2021/04/23 01:41:44;;;;;;;5.30;4.90;;;;;;;12.76;79.15;95068.69;5116435;28;20488;-75
2021/04/23 01:44:12;;;;;;;6.60;5.80;;;;;;;12.79;78.98;95065.78;5115918;28;20792;-74
2021/04/23 01:46:40;;;;;;;10.67;5.80;;;;;;;12.84;78.92;95068.81;5115707;28;20493;-74
2021/04/23 01:49:10;;;;;;;6.13;5.00;;;;;;;12.83;79.27;95074.22;5115900;28;20813;-74
2021/04/23 01:51:37;;;;;;;6.53;5.17;;;;;;;12.86;79.39;95072.16;5116215;28;20446;-74
2021/04/23 01:54:05;;;;;;;6.30;5.70;;;;;;;12.93;80.82;95075.88;5115914;28;20442;-74
2021/04/23 01:56:32;;;;;;;6.73;6.03;;;;;;;12.94;80.58;95069.63;5115926;28;20431;-75
2021/04/23 01:58:59;;;;;;;6.17;5.57;;;;;;;12.99;81.19;95077.94;5115529;28;20783;-73
2021/04/23 02:01:26;;;;;;;5.63;5.07;;;;;;;13.01;82.09;95076.03;5115648;28;20984;-74
2021/04/23 02:03:52;;;;;;;6.90;6.10;;;;;;;13.03;83.31;95084.63;5115143;28;20451;-74
2021/04/23 02:06:19;;;;;;;6.77;5.73;;;;;;;13.07;83.02;95073.81;5115022;28;20483;-74
2021/04/23 02:08:45;;;;;;;6.80;6.17;;;;;;;13.08;83.61;95076.28;5114974;28;20443;-74
2021/04/23 02:11:15;;;;;;;8.00;7.10;;;;;;;13.10;84.05;95078.78;5114695;28;20934;-73
2021/04/23 02:13:44;;;;;;;8.63;7.83;;;;;;;13.10;84.19;95082.25;5079147;28;20451;-74
2021/04/23 02:16:12;;;;;;;8.23;7.43;;;;;;;13.12;84.92;95088.22;5114557;28;20989;-74
2021/04/23 02:18:38;;;;;;;7.83;7.03;;;;;;;13.13;84.20;95091.69;5114869;28;20465;-76
2021/04/23 02:21:06;;;;;;;7.47;6.67;;;;;;;13.15;84.51;95087.09;5078602;28;20517;-73
2021/04/23 02:23:32;;;;;;;9.70;7.53;;;;;;;13.13;84.48;95084.59;5114727;28;20444;-73
2021/04/23 02:25:59;;;;;;;7.20;6.47;;;;;;;13.14;84.50;95077.53;5114659;28;20450;-74
2021/04/23 02:28:27;;;;;;;7.03;6.33;;;;;;;13.18;84.59;95076.31;5115061;28;20946;-72
2021/04/23 02:30:57;;;;;;;8.07;6.57;;;;;;;13.14;84.74;95080.16;5114806;28;20452;-73
2021/04/23 02:33:24;;;;;;;10.73;7.27;;;;;;;13.10;84.92;95084.88;5115344;28;20450;-72
2021/04/23 02:35:53;;;;;;;6.80;6.20;;;;;;;13.10;84.68;95081.41;5114894;28;20483;-72
2021/04/23 02:38:19;;;;;;;8.67;5.93;;;;;;;13.08;85.01;95086.00;5115134;27;20443;-73
2021/04/23 02:40:46;;;;;;;9.83;7.43;;;;;;;13.01;84.11;95085.75;5115008;28;20478;-73
2021/04/23 02:43:17;;;;;;;8.97;5.70;;;;;;;12.90;84.49;95089.31;5114828;28;20481;-72
2021/04/23 02:45:45;;;;;;;8.97;7.27;;;;;;;12.74;85.67;95096.97;5114892;28;20796;-72
2021/04/23 02:48:13;;;;;;;8.97;6.87;;;;;;;12.34;87.18;95100.50;5114637;27;20447;-73
2021/04/23 02:50:42;;;;;;;12.33;7.13;;;;;;;12.15;88.65;95097.84;5114685;28;20780;-72
2021/04/23 02:53:10;;;;;;;7.93;7.13;;;;;;;12.25;88.47;95108.38;5114524;28;20903;-72
2021/04/23 02:55:36;;;;;;;9.33;6.93;;;;;;;12.22;89.40;95104.22;5095423;28;20454;-73
2021/04/23 02:58:06;;;;;;;6.60;6.00;;;;;;;12.23;89.36;95111.16;5114414;28;20462;-73
2021/04/23 03:00:36;;;;;;;8.30;7.50;;;;;;;12.07;89.66;95111.66;5114799;28;20836;-73
2021/04/23 03:03:03;;;;;;;9.30;7.57;;;;;;;11.81;92.32;95106.97;5114400;28;20791;-72
2021/04/23 03:05:31;;;;;;;15.97;7.30;;;;;;;11.65;93.13;95116.16;5114627;28;20447;-72
2021/04/23 03:07:58;;;;;;;8.40;7.03;;;;;;;11.48;93.93;95122.00;5114310;28;20487;-72
2021/04/23 03:10:27;;;;;;;9.07;7.40;;;;;;;11.52;94.79;95118.16;5114594;28;20530;-72
2021/04/23 03:12:54;;;;;;;10.50;8.63;;;;;;;11.44;94.67;95134.56;5114279;28;20481;-72
2021/04/23 03:15:23;;;;;;;9.60;8.10;;;;;;;11.20;97.64;95133.16;5114279;28;20560;-72
2021/04/23 03:17:50;;;;;;;12.03;9.30;;;;;;;11.13;98.31;95138.94;5113771;28;20544;-73
2021/04/23 03:20:20;;;;;;;13.03;9.63;;;;;;;11.23;98.52;95138.16;5114040;28;20447;-72
2021/04/23 03:22:47;;;;;;;10.37;8.10;;;;;;;11.15;98.88;95129.13;5113948;28;20451;-72
2021/04/23 03:25:15;;;;;;;12.17;9.93;;;;;;;11.01;100.00;95132.09;5113971;28;20442;-73
2021/04/23 03:27:42;;;;;;;14.07;10.27;;;;;;;11.18;100.00;95134.13;5114086;27;20493;-73
2021/04/23 03:30:14;;;;;;;10.47;9.30;;;;;;;11.29;100.00;95145.56;5094889;28;20438;-72
2021/04/23 03:32:41;;;;;;;14.40;10.70;;;;;;;11.39;99.83;95146.44;5113524;28;20441;-72
2021/04/23 03:35:09;;;;;;;14.40;11.47;;;;;;;11.53;99.69;95143.47;5113791;28;20539;-72
2021/04/23 03:37:35;;;;;;;13.47;11.73;;;;;;;11.43;100.00;95142.59;5113904;28;20442;-72
2021/04/23 03:40:04;;;;;;;14.07;11.30;;;;;;;11.42;100.00;95141.75;5113666;28;20449;-72
2021/04/23 03:42:31;;;;;;;20.90;13.00;;;;;;;11.52;100.00;95140.97;5113676;28;20942;-72
2021/04/23 03:44:57;;;;;;;22.60;14.77;;;;;;;11.61;99.56;95141.06;5113624;28;20439;-73
2021/04/23 03:47:23;;;;;;;13.70;10.97;;;;;;;11.39;100.00;95152.53;5113761;28;20886;-73
2021/04/23 03:49:50;;;;;;;17.70;11.03;;;;;;;11.42;100.00;95151.44;5113337;28;20504;-72
2021/04/23 03:52:17;;;;;;;13.77;11.30;;;;;;;11.58;100.00;95167.59;5113757;28;20985;-72
2021/04/23 03:54:43;;;;;;;17.00;13.23;;;;;;;11.70;100.00;95171.81;5113501;28;20446;-72
2021/04/23 03:57:11;;;;;;;16.90;12.57;;;;;;;11.81;100.00;95170.09;5094572;28;20443;-73
2021/04/23 03:59:37;;;;;;;15.80;11.30;;;;;;;11.75;100.00;95169.63;5113280;28;20918;-73
2021/04/23 04:02:04;;;;;;;14.60;11.23;;;;;;;11.40;100.00;95174.38;5094221;28;20460;-73
2021/04/23 04:04:31;;;;;;;14.63;11.80;;;;;;;11.45;100.00;95174.81;5113271;28;20499;-72
2021/04/23 04:06:57;;;;;;;17.37;12.10;;;;;;;11.10;100.00;95172.50;5113512;28;20478;-72
2021/04/23 04:09:24;;;;;;;14.00;12.27;;;;;;;11.04;100.00;95171.22;5113532;28;20443;-72
2021/04/23 04:11:50;;;;;;;13.50;10.80;;;;;;;10.93;100.00;95181.75;5113159;28;20485;-72
2021/04/23 04:14:17;;;;;;;12.80;11.17;;;;;;;10.93;100.00;95181.75;5113354;28;20442;-72
2021/04/23 04:16:44;;;;;;;13.67;11.00;;;;;;;11.06;100.00;95171.94;5112698;28;20503;-75
2021/04/23 04:19:10;;;;;;;12.90;10.50;;;;;;;11.14;100.00;95169.50;5113226;28;20445;-73
2021/04/23 04:21:37;;;;;;;12.17;10.87;;;;;;;11.30;100.00;95184.00;5113244;28;20442;-72
2021/04/23 04:24:04;;;;;;;12.67;11.27;;;;;;;11.32;100.00;95184.72;5112593;28;20449;-73
2021/04/23 04:26:31;;;;;;;15.40;13.80;;;;;;;11.19;100.00;95187.50;5113184;28;20979;-72
2021/04/23 04:28:57;;;;;;;14.17;11.47;;;;;;;11.21;100.00;95190.81;5112924;28;20434;-72
2021/04/23 04:31:24;;;;;;;14.83;12.17;;;;;;;11.17;100.00;95187.63;5115584;28;20447;-72
2021/04/23 04:33:51;;;;;;;15.13;13.03;;;;;;;11.35;100.00;95184.44;5117714;28;20483;-73
2021/04/23 04:36:18;;;;;;;13.53;11.60;;;;;;;11.41;100.00;95191.81;5117734;28;20474;-72
2021/04/23 04:38:44;;;;;;;15.23;12.40;;;;;;;11.53;100.00;95195.19;5117303;28;20983;-73
2021/04/23 04:41:11;;;;;;;12.80;11.40;;;;;;;11.62;100.00;95200.53;5117342;28;20813;-72
2021/04/23 04:43:39;;;;;;;12.80;11.53;;;;;;;11.59;100.00;95190.28;5116992;28;20446;-73
2021/04/23 04:46:06;;;;;;;13.23;11.37;;;;;;;11.59;100.00;95192.09;5117028;28;20446;-72
2021/04/23 04:48:35;;;;;;;12.33;10.17;;;;;;;11.48;100.00;95203.47;5117287;28;20503;-73
2021/04/23 04:51:02;;;;;;;13.20;11.80;;;;;;;11.68;100.00;95204.44;5116994;28;20933;-72
2021/04/23 04:53:29;;;;;;;12.83;10.40;;;;;;;11.49;100.00;95198.09;5117147;28;20439;-72
2021/04/23 04:55:58;;;;;;;13.40;10.10;;;;;;;11.58;100.00;95207.03;5116199;28;20442;-72
2021/04/23 04:58:26;;;;;;;15.70;10.27;;;;;;;11.56;100.00;95208.09;5117001;28;20468;-72
2021/04/23 05:00:53;;;;;;;11.43;10.33;;;;;;;11.68;100.00;95213.16;5117105;28;20450;-73
2021/04/23 05:03:19;;;;;;;9.73;8.77;;;;;;;12.31;100.00;95216.56;5116846;28;20442;-77
2021/04/23 05:05:47;;;;;;;9.67;8.67;;;;;;;12.26;100.00;95224.03;5117186;28;20461;-76
2021/04/23 05:08:13;;;;;;;10.43;9.37;;;;;;;12.33;99.90;95219.88;5117346;28;20504;-76
2021/04/23 05:10:40;;;;;;;9.10;8.30;;;;;;;12.36;99.57;95216.16;5117081;28;20837;-77
2021/04/23 05:13:06;;;;;;;10.10;9.07;;;;;;;12.41;99.21;95209.53;5081277;28;20439;-76
2021/04/23 05:15:33;;;;;;;10.33;9.33;;;;;;;12.40;98.46;95212.28;5117266;28;20987;-76
2021/04/23 05:17:59;;;;;;;10.03;9.03;;;;;;;12.38;98.26;95209.78;5116942;28;20492;-73
2021/04/23 05:20:26;;;;;;;11.70;8.80;;;;;;;12.39;97.99;95214.09;5116563;28;20451;-73
2021/04/23 05:22:53;;;;;;;25.40;18.97;;;;;;;12.40;98.49;95223.66;5116361;28;20500;-73
2021/04/23 05:25:22;;;;;;;25.17;18.60;;;;;;;12.39;98.39;95235.13;5116437;28;20446;-73
2021/04/23 05:27:48;;;;;;;24.63;18.53;;;;;;;12.43;98.33;95235.72;5116039;28;20486;-73
2021/04/23 05:30:18;;;;;;;20.30;14.40;;;;;;;12.39;98.32;95227.25;5116147;28;20438;-72
2021/04/23 05:32:45;;;;;;;25.20;18.70;;;;;;;12.35;97.44;95231.13;5078102;28;20444;-73
2021/04/23 05:35:14;;;;;;;23.33;17.70;;;;;;;12.26;98.01;95237.19;5115110;28;20501;-74
2021/04/23 05:37:40;;;;;;;20.13;16.50;;;;;;;12.25;98.71;95234.69;5104493;28;20463;-73
2021/04/23 05:40:11;;;;;;;14.90;13.20;;;;;;;12.32;99.48;95241.06;5098286;28;20830;-73
2021/04/23 05:42:38;;;;;;;17.10;14.87;;;;;;;12.33;100.00;95246.19;5110244;28;20450;-73
2021/04/23 05:45:07;;;;;;;15.17;13.57;;;;;;;12.37;99.34;95242.34;5116045;28;20915;-73
2021/04/23 05:47:33;;;;;;;41.57;24.60;;;;;;;12.46;100.00;95248.63;5079834;28;20474;-73
2021/04/23 05:50:00;;;;;;;18.13;14.40;;;;;;;12.48;98.91;95251.13;5115799;28;20450;-73
2021/04/23 05:52:26;;;;;;;18.87;14.33;;;;;;;12.58;99.00;95259.88;5078924;28;20447;-72
2021/04/23 05:54:53;;;;;;;19.00;13.60;;;;;;;12.61;99.31;95255.19;5097024;28;20443;-73
2021/04/23 05:57:21;;;;;;;17.30;14.20;;;;;;;12.63;98.42;95255.03;5115482;28;20465;-74
2021/04/23 05:59:47;;;;;;;18.27;14.43;;;;;;;12.75;98.57;95255.78;5115757;28;20778;-72
2021/04/23 06:02:13;;;;;;;19.80;15.80;;;;;;;12.79;98.18;95250.13;5115542;28;20454;-71
2021/04/23 06:04:39;;;;;;;15.80;13.57;;;;;;;12.86;97.61;95251.25;5115324;28;20514;-71
2021/04/23 06:07:06;;;;;;;14.97;13.53;;;;;;;12.91;96.89;95258.72;5115098;28;20528;-72
2021/04/23 06:09:32;;;;;;;13.27;12.03;;;;;;;12.98;96.77;95267.75;5079178;28;20446;-72
2021/04/23 06:11:59;;;;;;;12.73;11.43;;;;;;;13.03;96.35;95257.66;5115655;28;20447;-76
2021/04/23 06:14:26;;;;;;;11.87;10.80;;;;;;;13.09;95.89;95264.19;5115396;28;20793;-73
2021/04/23 06:16:53;;;;;;;15.20;11.03;;;;;;;13.15;95.68;95259.19;5070628;28;20522;-74
2021/04/23 06:19:20;;;;;;;11.33;10.33;;;;;;;13.19;93.75;95262.41;5092947;28;20447;-73
2021/04/23 06:21:47;;;;;;;13.30;10.73;;;;;;;13.18;93.71;95268.66;5059631;28;20447;-76
2021/04/23 06:24:13;;;;;;;10.80;9.80;;;;;;;13.06;93.84;95272.38;5094917;28;20920;-74
2021/04/23 06:26:40;;;;;;;10.50;9.47;;;;;;;13.05;93.60;95273.34;5094629;28;20483;-74
2021/04/23 06:29:06;;;;;;;8.93;8.03;;;;;;;13.02;93.06;95270.00;5094699;28;20443;-74
2021/04/23 06:31:33;;;;;;;9.50;8.57;;;;;;;12.94;92.52;95267.19;5059346;28;20447;-74
2021/04/23 06:33:59;;;;;;;11.13;8.80;;;;;;;12.94;93.18;95279.53;5129433;27;20515;-74
2021/04/23 06:36:26;;;;;;;10.20;9.03;;;;;;;13.02;94.36;95269.16;5096193;28;20507;-75
2021/04/23 06:38:52;;;;;;;8.60;7.67;;;;;;;13.11;94.20;95276.25;5094384;28;20448;-74
2021/04/23 06:41:19;;;;;;;9.57;8.70;;;;;;;13.17;93.96;95264.31;5094388;28;20440;-74
2021/04/23 06:43:46;;;;;;;9.33;8.33;;;;;;;13.88;99.68;95265.78;5095154;28;20465;-75
2021/04/23 06:46:13;;;;;;;8.27;7.40;;;;;;;14.44;97.68;95266.75;5094657;28;20802;-75
2021/04/23 06:48:40;;;;;;;10.10;9.00;;;;;;;14.29;83.87;95284.00;5094130;28;20848;-74
2021/04/23 06:51:07;;;;;;;11.07;8.17;;;;;;;14.27;83.83;95279.72;5059077;28;20449;-74
2021/04/23 06:53:33;;;;;;;11.80;10.67;;;;;;;14.27;85.40;95281.53;5093682;28;20467;-74
2021/04/23 06:56:01;;;;;;;18.50;13.90;;;;;;;14.23;86.22;95282.78;5104048;28;20923;-75
2021/04/23 06:58:28;;;;;;;10.43;9.43;;;;;;;14.15;86.23;95277.38;5094487;28;20472;-74
2021/04/23 07:00:54;;;;;;;10.03;9.03;;;;;;;13.95;85.81;95287.13;5094440;28;20447;-75
2021/04/23 07:03:20;;;;;;;7.80;7.00;;;;;;;13.51;87.20;95284.09;5092249;28;20440;-74
2021/04/23 07:05:48;;;;;;;11.40;7.97;;;;;;;13.14;90.74;95286.50;5094310;28;20935;-77
2021/04/23 07:08:14;;;;;;;11.77;9.77;;;;;;;13.03;92.29;95286.66;5060133;28;20479;-76
2021/04/23 07:10:42;;;;;;;13.30;9.33;;;;;;;13.01;92.48;95286.78;5113838;28;20439;-74
2021/04/23 07:13:08;;;;;;;9.57;8.63;;;;;;;12.99;94.48;95278.16;5114652;28;20442;-75
2021/04/23 07:15:35;;;;;;;10.87;8.20;;;;;;;12.99;93.38;95283.41;5114629;28;20434;-75
2021/04/23 07:18:02;;;;;;;13.80;9.50;;;;;;;13.02;93.36;95287.63;5095349;28;20499;-74
2021/04/23 07:20:29;;;;;;;11.83;8.87;;;;;;;13.14;94.54;95286.50;5114261;28;20445;-74
2021/04/23 07:22:57;;;;;;;10.40;9.30;;;;;;;13.40;94.39;95286.88;5114220;28;21007;-73
2021/04/23 07:25:23;;;;;;;10.53;9.50;;;;;;;13.29;92.02;95285.16;5113588;28;20500;-73
2021/04/23 07:27:50;;;;;;;16.17;9.37;;;;;;;13.27;90.78;95297.66;5111945;28;20479;-74
2021/04/23 07:30:19;;;;;;;11.40;9.53;;;;;;;13.25;90.39;95288.22;5114016;28;20454;-75
2021/04/23 07:32:46;;;;;;;13.40;8.60;;;;;;;13.10;93.75;95290.41;5114500;28;20461;-76
2021/04/23 07:35:14;;;;;;;13.43;8.70;;;;;;;12.92;92.97;95298.09;5114072;28;20489;-76
2021/04/23 07:37:40;;;;;;;11.53;9.77;;;;;;;13.06;93.80;95299.53;5095475;28;20477;-81
2021/04/23 07:40:10;;;;;;;11.73;8.50;;;;;;;13.09;93.43;95293.16;5114324;28;20442;-76
2021/04/23 07:42:37;;;;;;;15.17;10.30;;;;;;;13.03;93.82;95291.91;5075141;28;20444;-74
2021/04/23 07:45:06;;;;;;;11.87;9.20;;;;;;;13.00;93.93;95300.88;5093432;28;20456;-74
2021/04/23 07:47:33;;;;;;;18.00;9.47;;;;;;;13.07;93.43;95303.84;5076254;28;20482;-75
2021/04/23 07:50:00;;;;;;;11.17;10.17;;;;;;;13.09;93.10;95298.44;5113937;28;20500;-74
2021/04/23 07:52:26;;;;;;;14.63;11.20;;;;;;;13.10;93.94;95297.47;5112579;28;20475;-75
2021/04/23 07:54:53;;;;;;;12.47;9.57;;;;;;;13.13;92.87;95299.81;5078200;28;20447;-75
2021/04/23 07:57:20;;;;;;;11.47;10.20;;;;;;;13.17;93.19;95296.81;5080879;28;20462;-75
2021/04/23 07:59:47;;;;;;;11.13;9.27;;;;;;;13.04;93.09;95296.22;5093549;28;20506;-75
2021/04/23 08:02:13;;;;;;;14.03;11.10;;;;;;;13.17;93.50;95298.59;5096320;28;20448;-74
2021/04/23 08:04:39;;;;;;;12.07;9.40;;;;;;;13.18;93.79;95298.47;5094303;28;20931;-75
2021/04/23 08:07:06;;;;;;;10.47;9.47;;;;;;;13.17;95.05;95301.22;5105208;28;20528;-75
2021/04/23 08:09:33;;;;;;;9.37;8.47;;;;;;;13.12;92.81;95301.63;5112892;28;20950;-75
2021/04/23 08:11:59;;;;;;;9.50;8.30;;;;;;;13.19;94.86;95299.31;5113152;28;20442;-75
2021/04/23 08:14:26;;;;;;;10.40;6.50;;;;;;;13.19;94.24;95292.25;5107764;28;21035;-75
2021/04/23 08:16:53;;;;;;;6.60;5.97;;;;;;;13.27;92.69;95291.56;5092983;28;20451;-75
2021/04/23 08:19:20;;;;;;;7.53;6.23;;;;;;;13.15;90.32;95298.72;5093230;28;20447;-75
2021/04/23 08:21:46;;;;;;;6.83;4.83;;;;;;;13.16;90.57;95300.38;5107687;28;20454;-76
2021/04/23 08:24:13;;;;;;;5.00;4.53;;;;;;;13.16;89.40;95302.19;5112846;28;20447;-75
2021/04/23 08:26:42;;;;;;;3.43;3.17;;;;;;;13.08;88.57;95302.88;5108925;28;20505;-74
2021/04/23 08:29:10;;;;;;;3.23;3.00;;;;;;;12.93;87.48;95301.56;5092735;28;20450;-73
2021/04/23 08:31:38;;;;;;;4.30;3.90;;;;;;;12.81;88.64;95298.22;5092845;28;20448;-73
2021/04/23 08:34:04;;;;;;;7.67;4.53;;;;;;;12.73;90.42;95302.50;5092875;28;20440;-74
2021/04/23 08:36:31;;;;;;;3.53;3.23;;;;;;;12.60;89.98;95308.81;5092281;28;20475;-73
2021/04/23 08:38:58;;;;;;;6.20;4.70;;;;;;;12.61;90.63;95304.38;5093399;28;20447;-74
2021/04/23 08:41:24;;;;;;;5.13;4.63;;;;;;;12.60;91.00;95300.06;5092923;28;20501;-74
2021/04/23 08:43:51;;;;;;;6.10;4.53;;;;;;;12.63;90.66;95302.44;5093419;28;20458;-74
2021/04/23 08:46:17;;;;;;;5.33;4.90;;;;;;;12.63;93.08;95299.81;5092655;28;20462;-74
2021/04/23 08:48:45;;;;;;;7.57;5.33;;;;;;;12.61;93.19;95305.19;5092994;28;20484;-74
2021/04/23 08:51:12;;;;;;;5.93;5.33;;;;;;;12.65;93.37;95309.22;5092701;28;20452;-74
2021/04/23 08:53:38;;;;;;;9.20;7.43;;;;;;;12.75;94.67;95300.56;5092896;28;20442;-73
2021/04/23 08:56:05;;;;;;;7.67;5.63;;;;;;;12.61;94.13;95307.84;5093315;28;20443;-74
2021/04/23 08:58:32;;;;;;;7.33;6.63;;;;;;;12.61;93.87;95294.66;5092965;28;20470;-74
2021/04/23 09:00:58;;;;;;;10.63;6.27;;;;;;;12.68;93.27;95305.50;5093400;28;20440;-74
2021/04/23 09:03:24;;;;;;;10.40;8.20;;;;;;;12.69;93.97;95313.25;5092879;28;20453;-74
2021/04/23 09:06:11;;;;;;;10.07;7.23;;;;;;;12.63;92.50;95305.91;5093102;28;20439;-74
2021/04/23 09:08:57;;;;;;;8.40;7.17;;;;;;;12.69;92.38;95300.09;5096343;28;20555;-74
2021/04/23 09:11:26;;;;;;;8.10;7.00;;;;;;;12.78;91.66;95311.66;5113381;28;20434;-74
2021/04/23 09:13:55;;;;;;;7.60;6.40;;;;;;;12.86;92.30;95309.19;5113530;28;20451;-74
2021/04/23 09:16:24;;;;;;;8.47;6.30;;;;;;;12.99;92.58;95308.94;5113575;28;20443;-74
2021/04/23 09:18:51;;;;;;;4.80;4.40;;;;;;;13.08;89.23;95320.47;5116743;28;20450;-74
2021/04/23 09:21:18;;;;;;;4.77;4.27;;;;;;;13.05;87.33;95318.94;5108918;28;20447;-74
2021/04/23 09:23:50;;;;;;;6.27;4.90;;;;;;;13.06;87.59;95319.78;5096117;28;20806;-74
2021/04/23 09:26:33;;;;;;;4.23;3.90;;;;;;;12.98;86.91;95318.63;5097566;28;20481;-74
2021/04/23 09:29:00;;;;;;;4.93;4.43;;;;;;;12.98;85.27;95312.53;5116455;28;20439;-73
2021/04/23 09:31:29;;;;;;;5.50;5.00;;;;;;;13.02;86.88;95311.31;5116699;27;20949;-73
2021/04/23 09:33:57;;;;;;;6.63;4.60;;;;;;;13.10;87.14;95308.84;5096261;28;20456;-73
2021/04/23 09:36:38;;;;;;;6.30;4.90;;;;;;;13.29;88.32;95313.31;5096160;28;20471;-75
2021/04/23 09:39:07;;;;;;;4.53;4.10;;;;;;;13.30;86.45;95307.13;5096071;28;20483;-73
2021/04/23 09:41:33;;;;;;;4.53;4.20;;;;;;;13.36;85.21;95314.47;5102788;28;21008;-74
2021/04/23 09:44:00;;;;;;;4.77;3.60;;;;;;;13.36;83.99;95317.09;5110021;28;20450;-74
2021/04/23 09:46:34;;;;;;;3.73;3.43;;;;;;;13.33;81.05;95317.38;5116136;28;20507;-74
2021/04/23 09:49:20;;;;;;;6.53;3.90;;;;;;;13.26;81.44;95318.88;5095969;28;20462;-75
2021/04/23 09:51:47;;;;;;;4.27;3.97;;;;;;;13.15;81.15;95318.97;5095522;28;20439;-74
2021/04/23 09:54:15;;;;;;;6.43;5.07;;;;;;;13.14;82.38;95314.66;5095696;28;20443;-74
2021/04/23 09:56:42;;;;;;;10.50;5.10;;;;;;;13.17;82.96;95317.91;5095959;28;20444;-74
2021/04/23 09:59:20;;;;;;;9.67;4.80;;;;;;;13.21;83.33;95314.00;5095742;28;20449;-74
2021/04/23 10:02:05;;;;;;;4.93;3.60;;;;;;;13.24;81.98;95323.44;5095815;28;20443;-74
2021/04/23 10:04:34;;;;;;;10.87;3.53;;;;;;;13.28;82.25;95315.13;5096008;28;20451;-74
2021/04/23 10:07:12;;;;;;;3.30;3.10;;;;;;;13.27;82.22;95313.47;5095101;28;20483;-74
2021/04/23 10:09:50;;;;;;;21.23;7.00;;;;;;;13.31;83.57;95319.31;5095482;28;20931;-73
2021/04/23 10:12:48;;;;;;;5.00;4.47;;;;;;;13.41;84.09;95312.25;5095879;28;20449;-73
2021/04/23 10:15:18;;;;;;;6.37;3.80;;;;;;;13.48;83.84;95320.44;5110347;28;20439;-74
2021/04/23 10:17:46;;;;;;;3.47;3.17;;;;;;;13.52;83.26;95314.75;5115980;28;20518;-74
2021/04/23 10:20:15;;;;;;;5.40;3.80;;;;;;;13.55;82.94;95311.84;5115640;28;20486;-74
2021/04/23 10:22:43;;;;;;;4.50;3.80;;;;;;;13.64;82.77;95311.03;5115976;28;20806;-74
2021/04/23 10:25:11;;;;;;;5.50;4.90;;;;;;;13.71;82.24;95319.22;5113876;28;20438;-74
2021/04/23 10:27:38;;;;;;;4.90;3.50;;;;;;;13.74;82.15;95320.75;5078358;28;20544;-74
2021/04/23 10:30:08;;;;;;;4.90;4.47;;;;;;;13.82;81.68;95318.22;5114509;28;20954;-74
2021/04/23 10:32:35;;;;;;;4.67;3.60;;;;;;;13.90;80.91;95318.38;5096420;28;20453;-74
2021/04/23 10:35:01;;;;;;;4.60;3.90;;;;;;;13.90;80.71;95321.03;5115152;27;20472;-74
2021/04/23 10:37:28;;;;;;;5.57;4.93;;;;;;;14.23;91.10;95312.66;5115491;28;20520;-76
2021/04/23 10:39:56;;;;;;;4.30;3.90;;;;;;;14.10;81.59;95329.75;5115761;28;20825;-76
2021/04/23 10:42:48;;;;;;;5.13;4.63;;;;;;;14.04;81.13;95322.38;5115460;28;20533;-73
2021/04/23 10:45:27;;;;;;;4.03;3.73;;;;;;;14.04;80.40;95325.03;5115274;28;20448;-73
2021/04/23 10:47:56;;;;;;;5.67;3.60;;;;;;;14.03;80.17;95321.56;5088260;28;20969;-75
2021/04/23 10:50:24;;;;;;;4.50;4.00;;;;;;;14.01;79.22;95323.50;5104999;28;20788;-74
2021/04/23 10:53:06;;;;;;;5.00;4.60;;;;;;;14.05;80.07;95319.59;5094231;28;20449;-74
2021/04/23 10:55:55;;;;;;;7.60;5.50;;;;;;;13.95;78.48;95313.53;5094617;28;20473;-74
2021/04/23 10:58:37;;;;;;;5.70;5.20;;;;;;;13.86;77.95;95315.16;5094106;28;20444;-74
2021/04/23 11:01:22;;;;;;;7.73;5.17;;;;;;;13.93;77.28;95318.09;5094080;28;20440;-74
2021/04/23 11:04:04;;;;;;;5.90;5.40;;;;;;;13.97;75.79;95313.38;5094075;28;20507;-74
2021/04/23 11:06:32;;;;;;;12.00;5.67;;;;;;;14.02;75.02;95324.34;5093987;28;20955;-74
2021/04/23 11:09:17;;;;;;;13.33;7.57;;;;;;;14.11;75.35;95319.03;5093732;28;20486;-74
2021/04/23 11:12:17;;;;;;;12.67;6.03;;;;;;;14.14;74.48;95318.75;5093966;28;20452;-71
2021/04/23 11:14:47;;;;;;;9.10;4.70;;;;;;;14.15;72.31;95315.16;5093651;28;20440;-74
2021/04/23 11:17:34;;;;;;;8.97;5.57;;;;;;;14.12;72.72;95307.50;5094141;28;20515;-74
2021/04/23 11:20:01;;;;;;;6.23;4.50;;;;;;;14.25;72.58;95304.59;5093475;28;20772;-74
2021/04/23 11:22:30;;;;;;;7.83;4.13;;;;;;;14.38;72.86;95306.91;5093748;28;20795;-74
2021/04/23 11:25:05;;;;;;;5.57;5.03;;;;;;;14.47;71.76;95299.00;5093820;28;20505;-71
2021/04/23 11:27:32;;;;;;;12.90;5.40;;;;;;;14.61;71.06;95294.22;5074569;28;20490;-72
2021/04/23 11:30:08;;;;;;;6.53;5.60;;;;;;;14.74;71.73;95298.19;5093371;28;20452;-73
2021/04/23 11:32:36;;;;;;;11.23;5.80;;;;;;;14.84;70.86;95296.34;5058638;28;20462;-72
2021/04/23 11:35:18;;;;;;;12.60;5.83;;;;;;;14.98;70.15;95296.84;5093213;28;20475;-72